<?xml version="1.0" encoding="UTF-8" standalone="no" ?>
<gpx xmlns="http://www.topografix.com/GPX/1/1" xmlns:xsi="http://www.w3.org/2001/XMLSchema-instance" xsi:schemaLocation="http://www.topografix.com/GPX/1/1 http://www.topografix.com/GPX/1/1/gpx.xsd" version="1.1" creator="VisuGPX - https://www.visugpx.com">
  <metadata>
    <name>Davrinche20104</name>
    <desc><![CDATA[la partie 4 des itinéraires de repérage]]></desc>
  </metadata>
  <trk>
    <name><![CDATA[--Pulvérières-- OR-5380681:ser-jb08-vtt-b]]></name>
    <trkseg>
      <trkpt lat="45.8866" lon="2.91381">
        <ele>859</ele>
        <time>2015-10-20T12:48:49Z</time>
      </trkpt>
      <trkpt lat="45.88653" lon="2.91358">
        <ele>859</ele>
        <time>2015-10-20T12:50:49Z</time>
      </trkpt>
      <trkpt lat="45.88665" lon="2.91255">
        <ele>859</ele>
        <time>2015-10-20T12:52:49Z</time>
      </trkpt>
      <trkpt lat="45.88682" lon="2.91249">
        <ele>859</ele>
        <time>2015-10-20T12:54:49Z</time>
      </trkpt>
      <trkpt lat="45.88698" lon="2.91255">
        <ele>858</ele>
        <time>2015-10-20T12:56:49Z</time>
      </trkpt>
      <trkpt lat="45.88706" lon="2.91228">
        <ele>858</ele>
        <time>2015-10-20T12:58:49Z</time>
      </trkpt>
      <trkpt lat="45.88753" lon="2.91192">
        <ele>857</ele>
        <time>2015-10-20T13:00:49Z</time>
      </trkpt>
      <trkpt lat="45.88791" lon="2.91173">
        <ele>856</ele>
        <time>2015-10-20T13:02:49Z</time>
      </trkpt>
      <trkpt lat="45.888" lon="2.91188">
        <ele>855</ele>
        <time>2015-10-20T13:04:49Z</time>
      </trkpt>
      <trkpt lat="45.88826" lon="2.91271">
        <ele>855</ele>
        <time>2015-10-20T13:06:49Z</time>
      </trkpt>
      <trkpt lat="45.8884" lon="2.91288">
        <ele>854</ele>
        <time>2015-10-20T13:08:49Z</time>
      </trkpt>
      <trkpt lat="45.88895" lon="2.91278">
        <ele>854</ele>
        <time>2015-10-20T13:10:49Z</time>
      </trkpt>
      <trkpt lat="45.88933" lon="2.91269">
        <ele>852</ele>
        <time>2015-10-20T13:12:49Z</time>
      </trkpt>
      <trkpt lat="45.88936" lon="2.91251">
        <ele>851</ele>
        <time>2015-10-20T13:14:49Z</time>
      </trkpt>
      <trkpt lat="45.88915" lon="2.91135">
        <ele>849</ele>
        <time>2015-10-20T13:16:49Z</time>
      </trkpt>
      <trkpt lat="45.88924" lon="2.91027">
        <ele>844</ele>
        <time>2015-10-20T13:18:49Z</time>
      </trkpt>
      <trkpt lat="45.88948" lon="2.91063">
        <ele>844</ele>
        <time>2015-10-20T13:20:49Z</time>
      </trkpt>
      <trkpt lat="45.88965" lon="2.91076">
        <ele>844</ele>
        <time>2015-10-20T13:22:49Z</time>
      </trkpt>
      <trkpt lat="45.89003" lon="2.91073">
        <ele>841</ele>
        <time>2015-10-20T13:24:49Z</time>
      </trkpt>
      <trkpt lat="45.89021" lon="2.91098">
        <ele>842</ele>
        <time>2015-10-20T13:26:49Z</time>
      </trkpt>
      <trkpt lat="45.89039" lon="2.91107">
        <ele>843</ele>
        <time>2015-10-20T13:28:49Z</time>
      </trkpt>
      <trkpt lat="45.89057" lon="2.91113">
        <ele>844</ele>
        <time>2015-10-20T13:30:49Z</time>
      </trkpt>
      <trkpt lat="45.89075" lon="2.91112">
        <ele>845</ele>
        <time>2015-10-20T13:32:49Z</time>
      </trkpt>
      <trkpt lat="45.89095" lon="2.91103">
        <ele>846</ele>
        <time>2015-10-20T13:34:49Z</time>
      </trkpt>
      <trkpt lat="45.89108" lon="2.9109">
        <ele>846</ele>
        <time>2015-10-20T13:36:49Z</time>
      </trkpt>
      <trkpt lat="45.89125" lon="2.91082">
        <ele>846</ele>
        <time>2015-10-20T13:38:49Z</time>
      </trkpt>
      <trkpt lat="45.89155" lon="2.91076">
        <ele>847</ele>
        <time>2015-10-20T13:40:49Z</time>
      </trkpt>
      <trkpt lat="45.8917" lon="2.91076">
        <ele>847</ele>
        <time>2015-10-20T13:42:49Z</time>
      </trkpt>
      <trkpt lat="45.89202" lon="2.91102">
        <ele>846</ele>
        <time>2015-10-20T13:44:49Z</time>
      </trkpt>
      <trkpt lat="45.89233" lon="2.91126">
        <ele>845</ele>
        <time>2015-10-20T13:46:49Z</time>
      </trkpt>
      <trkpt lat="45.8927" lon="2.91158">
        <ele>845</ele>
        <time>2015-10-20T13:48:49Z</time>
      </trkpt>
      <trkpt lat="45.89289" lon="2.9118">
        <ele>844</ele>
        <time>2015-10-20T13:50:49Z</time>
      </trkpt>
      <trkpt lat="45.89331" lon="2.91164">
        <ele>843</ele>
        <time>2015-10-20T13:52:49Z</time>
      </trkpt>
      <trkpt lat="45.89324" lon="2.91125">
        <ele>843</ele>
        <time>2015-10-20T13:54:49Z</time>
      </trkpt>
      <trkpt lat="45.893" lon="2.91041">
        <ele>844</ele>
        <time>2015-10-20T13:56:49Z</time>
      </trkpt>
      <trkpt lat="45.89292" lon="2.91021">
        <ele>844</ele>
        <time>2015-10-20T13:58:49Z</time>
      </trkpt>
      <trkpt lat="45.89312" lon="2.91007">
        <ele>843</ele>
        <time>2015-10-20T14:00:49Z</time>
      </trkpt>
      <trkpt lat="45.8933" lon="2.90988">
        <ele>844</ele>
        <time>2015-10-20T14:02:49Z</time>
      </trkpt>
      <trkpt lat="45.89338" lon="2.90974">
        <ele>845</ele>
        <time>2015-10-20T14:04:49Z</time>
      </trkpt>
      <trkpt lat="45.89364" lon="2.90987">
        <ele>845</ele>
        <time>2015-10-20T14:06:49Z</time>
      </trkpt>
      <trkpt lat="45.89387" lon="2.91006">
        <ele>846</ele>
        <time>2015-10-20T14:08:49Z</time>
      </trkpt>
      <trkpt lat="45.89408" lon="2.91006">
        <ele>847</ele>
        <time>2015-10-20T14:10:49Z</time>
      </trkpt>
      <trkpt lat="45.89429" lon="2.90997">
        <ele>848</ele>
        <time>2015-10-20T14:12:49Z</time>
      </trkpt>
      <trkpt lat="45.89449" lon="2.90976">
        <ele>850</ele>
        <time>2015-10-20T14:14:49Z</time>
      </trkpt>
      <trkpt lat="45.89467" lon="2.90963">
        <ele>850</ele>
        <time>2015-10-20T14:16:49Z</time>
      </trkpt>
      <trkpt lat="45.89483" lon="2.90937">
        <ele>851</ele>
        <time>2015-10-20T14:18:49Z</time>
      </trkpt>
      <trkpt lat="45.89498" lon="2.90849">
        <ele>857</ele>
        <time>2015-10-20T14:20:49Z</time>
      </trkpt>
      <trkpt lat="45.89526" lon="2.90742">
        <ele>853</ele>
        <time>2015-10-20T14:22:49Z</time>
      </trkpt>
      <trkpt lat="45.8955" lon="2.90633">
        <ele>848</ele>
        <time>2015-10-20T14:24:49Z</time>
      </trkpt>
      <trkpt lat="45.89556" lon="2.90601">
        <ele>848</ele>
        <time>2015-10-20T14:26:49Z</time>
      </trkpt>
      <trkpt lat="45.89558" lon="2.90522">
        <ele>845</ele>
        <time>2015-10-20T14:28:49Z</time>
      </trkpt>
      <trkpt lat="45.89561" lon="2.90486">
        <ele>844</ele>
        <time>2015-10-20T14:30:49Z</time>
      </trkpt>
      <trkpt lat="45.89564" lon="2.90429">
        <ele>843</ele>
        <time>2015-10-20T14:32:49Z</time>
      </trkpt>
      <trkpt lat="45.89569" lon="2.90404">
        <ele>843</ele>
        <time>2015-10-20T14:34:49Z</time>
      </trkpt>
      <trkpt lat="45.89613" lon="2.90345">
        <ele>838</ele>
        <time>2015-10-20T14:36:49Z</time>
      </trkpt>
      <trkpt lat="45.89637" lon="2.90319">
        <ele>835</ele>
        <time>2015-10-20T14:38:49Z</time>
      </trkpt>
      <trkpt lat="45.89667" lon="2.90259">
        <ele>831</ele>
        <time>2015-10-20T14:40:49Z</time>
      </trkpt>
      <trkpt lat="45.89667" lon="2.9023">
        <ele>830</ele>
        <time>2015-10-20T14:42:49Z</time>
      </trkpt>
      <trkpt lat="45.89669" lon="2.9019">
        <ele>829</ele>
        <time>2015-10-20T14:44:49Z</time>
      </trkpt>
      <trkpt lat="45.89662" lon="2.90157">
        <ele>829</ele>
        <time>2015-10-20T14:46:49Z</time>
      </trkpt>
      <trkpt lat="45.8964" lon="2.9013">
        <ele>830</ele>
        <time>2015-10-20T14:48:49Z</time>
      </trkpt>
      <trkpt lat="45.89615" lon="2.90119">
        <ele>831</ele>
        <time>2015-10-20T14:50:49Z</time>
      </trkpt>
      <trkpt lat="45.89589" lon="2.90112">
        <ele>831</ele>
        <time>2015-10-20T14:52:49Z</time>
      </trkpt>
      <trkpt lat="45.89557" lon="2.90103">
        <ele>833</ele>
        <time>2015-10-20T14:54:49Z</time>
      </trkpt>
      <trkpt lat="45.89529" lon="2.90094">
        <ele>833</ele>
        <time>2015-10-20T14:56:49Z</time>
      </trkpt>
      <trkpt lat="45.8952" lon="2.90062">
        <ele>832</ele>
        <time>2015-10-20T14:58:49Z</time>
      </trkpt>
      <trkpt lat="45.89504" lon="2.90006">
        <ele>829</ele>
        <time>2015-10-20T15:00:49Z</time>
      </trkpt>
      <trkpt lat="45.89487" lon="2.89972">
        <ele>827</ele>
        <time>2015-10-20T15:02:49Z</time>
      </trkpt>
      <trkpt lat="45.89458" lon="2.89926">
        <ele>824</ele>
        <time>2015-10-20T15:04:49Z</time>
      </trkpt>
      <trkpt lat="45.8942" lon="2.89886">
        <ele>821</ele>
        <time>2015-10-20T15:06:49Z</time>
      </trkpt>
      <trkpt lat="45.89393" lon="2.8985">
        <ele>818</ele>
        <time>2015-10-20T15:08:49Z</time>
      </trkpt>
      <trkpt lat="45.89368" lon="2.89808">
        <ele>814</ele>
        <time>2015-10-20T15:10:49Z</time>
      </trkpt>
      <trkpt lat="45.89329" lon="2.8977">
        <ele>812</ele>
        <time>2015-10-20T15:12:49Z</time>
      </trkpt>
      <trkpt lat="45.893" lon="2.89743">
        <ele>811</ele>
        <time>2015-10-20T15:14:49Z</time>
      </trkpt>
      <trkpt lat="45.89295" lon="2.89708">
        <ele>811</ele>
        <time>2015-10-20T15:16:49Z</time>
      </trkpt>
      <trkpt lat="45.89295" lon="2.89667">
        <ele>811</ele>
        <time>2015-10-20T15:18:49Z</time>
      </trkpt>
      <trkpt lat="45.8929" lon="2.89601">
        <ele>812</ele>
        <time>2015-10-20T15:20:49Z</time>
      </trkpt>
      <trkpt lat="45.89266" lon="2.89619">
        <ele>813</ele>
        <time>2015-10-20T15:22:49Z</time>
      </trkpt>
      <trkpt lat="45.89242" lon="2.89648">
        <ele>814</ele>
        <time>2015-10-20T15:24:49Z</time>
      </trkpt>
      <trkpt lat="45.8922" lon="2.89673">
        <ele>815</ele>
        <time>2015-10-20T15:26:49Z</time>
      </trkpt>
      <trkpt lat="45.89193" lon="2.89688">
        <ele>817</ele>
        <time>2015-10-20T15:28:49Z</time>
      </trkpt>
      <trkpt lat="45.89161" lon="2.89707">
        <ele>819</ele>
        <time>2015-10-20T15:30:49Z</time>
      </trkpt>
      <trkpt lat="45.89131" lon="2.89694">
        <ele>821</ele>
        <time>2015-10-20T15:32:49Z</time>
      </trkpt>
      <trkpt lat="45.89051" lon="2.89669">
        <ele>828</ele>
        <time>2015-10-20T15:34:49Z</time>
      </trkpt>
      <trkpt lat="45.88984" lon="2.89641">
        <ele>835</ele>
        <time>2015-10-20T15:36:49Z</time>
      </trkpt>
      <trkpt lat="45.88963" lon="2.8963">
        <ele>837</ele>
        <time>2015-10-20T15:38:49Z</time>
      </trkpt>
      <trkpt lat="45.88936" lon="2.8964">
        <ele>839</ele>
        <time>2015-10-20T15:40:49Z</time>
      </trkpt>
      <trkpt lat="45.88855" lon="2.89601">
        <ele>843</ele>
        <time>2015-10-20T15:42:49Z</time>
      </trkpt>
      <trkpt lat="45.88739" lon="2.89545">
        <ele>848</ele>
        <time>2015-10-20T15:44:49Z</time>
      </trkpt>
      <trkpt lat="45.88693" lon="2.89561">
        <ele>846</ele>
        <time>2015-10-20T15:46:49Z</time>
      </trkpt>
      <trkpt lat="45.88662" lon="2.89579">
        <ele>845</ele>
        <time>2015-10-20T15:48:49Z</time>
      </trkpt>
      <trkpt lat="45.8863" lon="2.89581">
        <ele>842</ele>
        <time>2015-10-20T15:50:49Z</time>
      </trkpt>
      <trkpt lat="45.886" lon="2.89576">
        <ele>840</ele>
        <time>2015-10-20T15:52:49Z</time>
      </trkpt>
      <trkpt lat="45.88545" lon="2.89559">
        <ele>837</ele>
        <time>2015-10-20T15:54:49Z</time>
      </trkpt>
      <trkpt lat="45.8853" lon="2.896">
        <ele>835</ele>
        <time>2015-10-20T15:56:49Z</time>
      </trkpt>
      <trkpt lat="45.88521" lon="2.89623">
        <ele>833</ele>
        <time>2015-10-20T15:58:49Z</time>
      </trkpt>
      <trkpt lat="45.88498" lon="2.89647">
        <ele>831</ele>
        <time>2015-10-20T16:00:49Z</time>
      </trkpt>
      <trkpt lat="45.88459" lon="2.89675">
        <ele>828</ele>
        <time>2015-10-20T16:02:49Z</time>
      </trkpt>
      <trkpt lat="45.88424" lon="2.89704">
        <ele>827</ele>
        <time>2015-10-20T16:04:49Z</time>
      </trkpt>
      <trkpt lat="45.88384" lon="2.89703">
        <ele>825</ele>
        <time>2015-10-20T16:06:49Z</time>
      </trkpt>
      <trkpt lat="45.88342" lon="2.89698">
        <ele>822</ele>
        <time>2015-10-20T16:08:49Z</time>
      </trkpt>
      <trkpt lat="45.88292" lon="2.89689">
        <ele>819</ele>
        <time>2015-10-20T16:10:49Z</time>
      </trkpt>
      <trkpt lat="45.88258" lon="2.89687">
        <ele>817</ele>
        <time>2015-10-20T16:12:49Z</time>
      </trkpt>
      <trkpt lat="45.88231" lon="2.89701">
        <ele>815</ele>
        <time>2015-10-20T16:14:49Z</time>
      </trkpt>
      <trkpt lat="45.88204" lon="2.89703">
        <ele>814</ele>
        <time>2015-10-20T16:16:49Z</time>
      </trkpt>
      <trkpt lat="45.88175" lon="2.89701">
        <ele>812</ele>
        <time>2015-10-20T16:18:49Z</time>
      </trkpt>
      <trkpt lat="45.88145" lon="2.89713">
        <ele>811</ele>
        <time>2015-10-20T16:20:49Z</time>
      </trkpt>
      <trkpt lat="45.88099" lon="2.89735">
        <ele>811</ele>
        <time>2015-10-20T16:22:49Z</time>
      </trkpt>
      <trkpt lat="45.88035" lon="2.89765">
        <ele>808</ele>
        <time>2015-10-20T16:24:49Z</time>
      </trkpt>
      <trkpt lat="45.87995" lon="2.89791">
        <ele>807</ele>
        <time>2015-10-20T16:26:49Z</time>
      </trkpt>
      <trkpt lat="45.87965" lon="2.89811">
        <ele>805</ele>
        <time>2015-10-20T16:28:49Z</time>
      </trkpt>
      <trkpt lat="45.8793" lon="2.89837">
        <ele>803</ele>
        <time>2015-10-20T16:30:49Z</time>
      </trkpt>
      <trkpt lat="45.87908" lon="2.89888">
        <ele>803</ele>
        <time>2015-10-20T16:32:49Z</time>
      </trkpt>
      <trkpt lat="45.87893" lon="2.89926">
        <ele>802</ele>
        <time>2015-10-20T16:34:49Z</time>
      </trkpt>
      <trkpt lat="45.87889" lon="2.89966">
        <ele>800</ele>
        <time>2015-10-20T16:36:49Z</time>
      </trkpt>
      <trkpt lat="45.8789" lon="2.90007">
        <ele>800</ele>
        <time>2015-10-20T16:38:49Z</time>
      </trkpt>
      <trkpt lat="45.87889" lon="2.90046">
        <ele>799</ele>
        <time>2015-10-20T16:40:49Z</time>
      </trkpt>
      <trkpt lat="45.87879" lon="2.90074">
        <ele>798</ele>
        <time>2015-10-20T16:42:49Z</time>
      </trkpt>
      <trkpt lat="45.87864" lon="2.901">
        <ele>799</ele>
        <time>2015-10-20T16:44:49Z</time>
      </trkpt>
      <trkpt lat="45.87831" lon="2.901">
        <ele>798</ele>
        <time>2015-10-20T16:46:49Z</time>
      </trkpt>
      <trkpt lat="45.878" lon="2.90072">
        <ele>798</ele>
        <time>2015-10-20T16:48:49Z</time>
      </trkpt>
      <trkpt lat="45.87774" lon="2.90055">
        <ele>799</ele>
        <time>2015-10-20T16:50:49Z</time>
      </trkpt>
      <trkpt lat="45.87747" lon="2.90026">
        <ele>801</ele>
        <time>2015-10-20T16:52:49Z</time>
      </trkpt>
      <trkpt lat="45.87724" lon="2.90007">
        <ele>807</ele>
        <time>2015-10-20T16:54:49Z</time>
      </trkpt>
      <trkpt lat="45.87701" lon="2.90017">
        <ele>813</ele>
        <time>2015-10-20T16:56:49Z</time>
      </trkpt>
      <trkpt lat="45.87674" lon="2.9004">
        <ele>818</ele>
        <time>2015-10-20T16:58:49Z</time>
      </trkpt>
      <trkpt lat="45.87646" lon="2.90046">
        <ele>821</ele>
        <time>2015-10-20T17:00:49Z</time>
      </trkpt>
      <trkpt lat="45.87611" lon="2.90045">
        <ele>825</ele>
        <time>2015-10-20T17:02:49Z</time>
      </trkpt>
      <trkpt lat="45.87582" lon="2.90044">
        <ele>829</ele>
        <time>2015-10-20T17:04:49Z</time>
      </trkpt>
      <trkpt lat="45.87555" lon="2.90061">
        <ele>831</ele>
        <time>2015-10-20T17:06:49Z</time>
      </trkpt>
      <trkpt lat="45.87525" lon="2.90101">
        <ele>832</ele>
        <time>2015-10-20T17:08:49Z</time>
      </trkpt>
      <trkpt lat="45.87493" lon="2.90127">
        <ele>834</ele>
        <time>2015-10-20T17:10:49Z</time>
      </trkpt>
      <trkpt lat="45.87456" lon="2.90153">
        <ele>836</ele>
        <time>2015-10-20T17:12:49Z</time>
      </trkpt>
      <trkpt lat="45.87422" lon="2.90167">
        <ele>838</ele>
        <time>2015-10-20T17:14:49Z</time>
      </trkpt>
      <trkpt lat="45.87393" lon="2.90175">
        <ele>839</ele>
        <time>2015-10-20T17:16:49Z</time>
      </trkpt>
      <trkpt lat="45.87372" lon="2.90173">
        <ele>840</ele>
        <time>2015-10-20T17:18:49Z</time>
      </trkpt>
      <trkpt lat="45.87351" lon="2.90187">
        <ele>841</ele>
        <time>2015-10-20T17:20:49Z</time>
      </trkpt>
      <trkpt lat="45.87334" lon="2.90208">
        <ele>841</ele>
        <time>2015-10-20T17:22:49Z</time>
      </trkpt>
      <trkpt lat="45.87335" lon="2.90226">
        <ele>840</ele>
        <time>2015-10-20T17:24:49Z</time>
      </trkpt>
      <trkpt lat="45.87295" lon="2.90282">
        <ele>841</ele>
        <time>2015-10-20T17:26:49Z</time>
      </trkpt>
      <trkpt lat="45.87251" lon="2.90345">
        <ele>842</ele>
        <time>2015-10-20T17:28:49Z</time>
      </trkpt>
      <trkpt lat="45.87233" lon="2.90345">
        <ele>842</ele>
        <time>2015-10-20T17:30:49Z</time>
      </trkpt>
      <trkpt lat="45.87212" lon="2.90334">
        <ele>842</ele>
        <time>2015-10-20T17:32:49Z</time>
      </trkpt>
      <trkpt lat="45.87189" lon="2.90342">
        <ele>841</ele>
        <time>2015-10-20T17:34:49Z</time>
      </trkpt>
      <trkpt lat="45.8716" lon="2.90356">
        <ele>841</ele>
        <time>2015-10-20T17:36:49Z</time>
      </trkpt>
      <trkpt lat="45.87147" lon="2.90368">
        <ele>840</ele>
        <time>2015-10-20T17:38:49Z</time>
      </trkpt>
      <trkpt lat="45.87121" lon="2.90332">
        <ele>839</ele>
        <time>2015-10-20T17:40:49Z</time>
      </trkpt>
      <trkpt lat="45.87071" lon="2.90336">
        <ele>837</ele>
        <time>2015-10-20T17:42:49Z</time>
      </trkpt>
      <trkpt lat="45.87039" lon="2.9034">
        <ele>835</ele>
        <time>2015-10-20T17:44:49Z</time>
      </trkpt>
      <trkpt lat="45.86997" lon="2.9034">
        <ele>834</ele>
        <time>2015-10-20T17:46:49Z</time>
      </trkpt>
      <trkpt lat="45.86955" lon="2.90335">
        <ele>832</ele>
        <time>2015-10-20T17:48:49Z</time>
      </trkpt>
      <trkpt lat="45.86917" lon="2.90327">
        <ele>831</ele>
        <time>2015-10-20T17:50:49Z</time>
      </trkpt>
      <trkpt lat="45.86902" lon="2.90334">
        <ele>830</ele>
        <time>2015-10-20T17:52:49Z</time>
      </trkpt>
      <trkpt lat="45.86895" lon="2.90308">
        <ele>831</ele>
        <time>2015-10-20T17:54:49Z</time>
      </trkpt>
      <trkpt lat="45.86799" lon="2.90217">
        <ele>826</ele>
        <time>2015-10-20T17:56:49Z</time>
      </trkpt>
      <trkpt lat="45.86759" lon="2.90164">
        <ele>823</ele>
        <time>2015-10-20T17:58:49Z</time>
      </trkpt>
      <trkpt lat="45.86688" lon="2.90082">
        <ele>813</ele>
        <time>2015-10-20T18:00:49Z</time>
      </trkpt>
      <trkpt lat="45.86646" lon="2.90038">
        <ele>809</ele>
        <time>2015-10-20T18:02:49Z</time>
      </trkpt>
      <trkpt lat="45.86616" lon="2.89986">
        <ele>808</ele>
        <time>2015-10-20T18:04:49Z</time>
      </trkpt>
      <trkpt lat="45.86552" lon="2.8995">
        <ele>804</ele>
        <time>2015-10-20T18:06:49Z</time>
      </trkpt>
      <trkpt lat="45.86552" lon="2.89974">
        <ele>804</ele>
        <time>2015-10-20T18:08:49Z</time>
      </trkpt>
      <trkpt lat="45.86553" lon="2.89993">
        <ele>804</ele>
        <time>2015-10-20T18:10:49Z</time>
      </trkpt>
      <trkpt lat="45.86562" lon="2.90008">
        <ele>804</ele>
        <time>2015-10-20T18:12:49Z</time>
      </trkpt>
      <trkpt lat="45.86557" lon="2.9003">
        <ele>804</ele>
        <time>2015-10-20T18:14:49Z</time>
      </trkpt>
      <trkpt lat="45.86552" lon="2.90057">
        <ele>803</ele>
        <time>2015-10-20T18:16:49Z</time>
      </trkpt>
      <trkpt lat="45.86563" lon="2.90091">
        <ele>804</ele>
        <time>2015-10-20T18:18:49Z</time>
      </trkpt>
      <trkpt lat="45.86578" lon="2.90105">
        <ele>805</ele>
        <time>2015-10-20T18:20:49Z</time>
      </trkpt>
      <trkpt lat="45.86587" lon="2.90135">
        <ele>807</ele>
        <time>2015-10-20T18:22:49Z</time>
      </trkpt>
      <trkpt lat="45.86596" lon="2.90172">
        <ele>809</ele>
        <time>2015-10-20T18:24:49Z</time>
      </trkpt>
      <trkpt lat="45.86605" lon="2.90193">
        <ele>811</ele>
        <time>2015-10-20T18:26:49Z</time>
      </trkpt>
      <trkpt lat="45.8661" lon="2.90235">
        <ele>813</ele>
        <time>2015-10-20T18:28:49Z</time>
      </trkpt>
      <trkpt lat="45.86611" lon="2.90267">
        <ele>815</ele>
        <time>2015-10-20T18:30:49Z</time>
      </trkpt>
      <trkpt lat="45.86613" lon="2.90319">
        <ele>816</ele>
        <time>2015-10-20T18:32:49Z</time>
      </trkpt>
      <trkpt lat="45.86616" lon="2.90344">
        <ele>817</ele>
        <time>2015-10-20T18:34:49Z</time>
      </trkpt>
      <trkpt lat="45.86594" lon="2.90426">
        <ele>819</ele>
        <time>2015-10-20T18:36:49Z</time>
      </trkpt>
      <trkpt lat="45.86632" lon="2.90493">
        <ele>821</ele>
        <time>2015-10-20T18:38:49Z</time>
      </trkpt>
      <trkpt lat="45.86662" lon="2.90546">
        <ele>825</ele>
        <time>2015-10-20T18:40:49Z</time>
      </trkpt>
      <trkpt lat="45.86667" lon="2.90585">
        <ele>829</ele>
        <time>2015-10-20T18:42:49Z</time>
      </trkpt>
      <trkpt lat="45.86664" lon="2.90624">
        <ele>831</ele>
        <time>2015-10-20T18:44:49Z</time>
      </trkpt>
      <trkpt lat="45.86659" lon="2.90656">
        <ele>833</ele>
        <time>2015-10-20T18:46:49Z</time>
      </trkpt>
      <trkpt lat="45.86651" lon="2.90685">
        <ele>835</ele>
        <time>2015-10-20T18:48:49Z</time>
      </trkpt>
      <trkpt lat="45.86642" lon="2.90717">
        <ele>838</ele>
        <time>2015-10-20T18:50:49Z</time>
      </trkpt>
      <trkpt lat="45.86646" lon="2.90756">
        <ele>839</ele>
        <time>2015-10-20T18:52:49Z</time>
      </trkpt>
      <trkpt lat="45.86657" lon="2.90783">
        <ele>840</ele>
        <time>2015-10-20T18:54:49Z</time>
      </trkpt>
      <trkpt lat="45.86671" lon="2.90796">
        <ele>840</ele>
        <time>2015-10-20T18:56:49Z</time>
      </trkpt>
      <trkpt lat="45.86696" lon="2.90826">
        <ele>843</ele>
        <time>2015-10-20T18:58:49Z</time>
      </trkpt>
      <trkpt lat="45.86716" lon="2.90871">
        <ele>847</ele>
        <time>2015-10-20T19:00:49Z</time>
      </trkpt>
      <trkpt lat="45.86737" lon="2.90911">
        <ele>850</ele>
        <time>2015-10-20T19:02:49Z</time>
      </trkpt>
      <trkpt lat="45.86757" lon="2.90975">
        <ele>853</ele>
        <time>2015-10-20T19:04:49Z</time>
      </trkpt>
      <trkpt lat="45.86741" lon="2.91015">
        <ele>855</ele>
        <time>2015-10-20T19:06:49Z</time>
      </trkpt>
      <trkpt lat="45.86738" lon="2.91049">
        <ele>857</ele>
        <time>2015-10-20T19:08:49Z</time>
      </trkpt>
      <trkpt lat="45.86734" lon="2.91082">
        <ele>858</ele>
        <time>2015-10-20T19:10:49Z</time>
      </trkpt>
      <trkpt lat="45.86722" lon="2.91116">
        <ele>861</ele>
        <time>2015-10-20T19:12:49Z</time>
      </trkpt>
      <trkpt lat="45.86699" lon="2.91178">
        <ele>865</ele>
        <time>2015-10-20T19:14:49Z</time>
      </trkpt>
      <trkpt lat="45.86685" lon="2.91219">
        <ele>868</ele>
        <time>2015-10-20T19:16:49Z</time>
      </trkpt>
      <trkpt lat="45.86662" lon="2.91259">
        <ele>870</ele>
        <time>2015-10-20T19:18:49Z</time>
      </trkpt>
      <trkpt lat="45.86643" lon="2.91289">
        <ele>871</ele>
        <time>2015-10-20T19:20:49Z</time>
      </trkpt>
      <trkpt lat="45.8661" lon="2.91319">
        <ele>871</ele>
        <time>2015-10-20T19:22:49Z</time>
      </trkpt>
      <trkpt lat="45.86565" lon="2.91337">
        <ele>867</ele>
        <time>2015-10-20T19:24:49Z</time>
      </trkpt>
      <trkpt lat="45.8652" lon="2.91351">
        <ele>861</ele>
        <time>2015-10-20T19:26:49Z</time>
      </trkpt>
      <trkpt lat="45.86483" lon="2.91353">
        <ele>859</ele>
        <time>2015-10-20T19:28:49Z</time>
      </trkpt>
      <trkpt lat="45.86457" lon="2.91384">
        <ele>858</ele>
        <time>2015-10-20T19:30:49Z</time>
      </trkpt>
      <trkpt lat="45.86432" lon="2.91389">
        <ele>857</ele>
        <time>2015-10-20T19:32:49Z</time>
      </trkpt>
      <trkpt lat="45.86383" lon="2.91385">
        <ele>858</ele>
        <time>2015-10-20T19:34:49Z</time>
      </trkpt>
      <trkpt lat="45.86354" lon="2.91393">
        <ele>859</ele>
        <time>2015-10-20T19:36:49Z</time>
      </trkpt>
      <trkpt lat="45.86318" lon="2.91463">
        <ele>863</ele>
        <time>2015-10-20T19:38:49Z</time>
      </trkpt>
      <trkpt lat="45.86288" lon="2.91533">
        <ele>867</ele>
        <time>2015-10-20T19:40:49Z</time>
      </trkpt>
      <trkpt lat="45.86268" lon="2.91579">
        <ele>870</ele>
        <time>2015-10-20T19:42:49Z</time>
      </trkpt>
      <trkpt lat="45.86307" lon="2.91622">
        <ele>872</ele>
        <time>2015-10-20T19:44:49Z</time>
      </trkpt>
      <trkpt lat="45.86319" lon="2.9165">
        <ele>874</ele>
        <time>2015-10-20T19:46:49Z</time>
      </trkpt>
      <trkpt lat="45.86359" lon="2.91702">
        <ele>876</ele>
        <time>2015-10-20T19:48:49Z</time>
      </trkpt>
      <trkpt lat="45.86299" lon="2.92034">
        <ele>878</ele>
        <time>2015-10-20T19:50:49Z</time>
      </trkpt>
      <trkpt lat="45.86297" lon="2.92053">
        <ele>878</ele>
        <time>2015-10-20T19:52:49Z</time>
      </trkpt>
      <trkpt lat="45.86152" lon="2.92025">
        <ele>875</ele>
        <time>2015-10-20T19:54:49Z</time>
      </trkpt>
      <trkpt lat="45.8615" lon="2.92049">
        <ele>877</ele>
        <time>2015-10-20T19:56:49Z</time>
      </trkpt>
      <trkpt lat="45.86137" lon="2.92112">
        <ele>879</ele>
        <time>2015-10-20T19:58:49Z</time>
      </trkpt>
      <trkpt lat="45.8614" lon="2.92188">
        <ele>880</ele>
        <time>2015-10-20T20:00:49Z</time>
      </trkpt>
      <trkpt lat="45.86146" lon="2.92249">
        <ele>880</ele>
        <time>2015-10-20T20:02:49Z</time>
      </trkpt>
      <trkpt lat="45.86154" lon="2.92302">
        <ele>879</ele>
        <time>2015-10-20T20:04:49Z</time>
      </trkpt>
      <trkpt lat="45.86163" lon="2.92396">
        <ele>880</ele>
        <time>2015-10-20T20:06:49Z</time>
      </trkpt>
      <trkpt lat="45.8618" lon="2.92479">
        <ele>881</ele>
        <time>2015-10-20T20:08:49Z</time>
      </trkpt>
      <trkpt lat="45.86203" lon="2.92583">
        <ele>878</ele>
        <time>2015-10-20T20:10:49Z</time>
      </trkpt>
      <trkpt lat="45.86225" lon="2.92659">
        <ele>879</ele>
        <time>2015-10-20T20:12:49Z</time>
      </trkpt>
      <trkpt lat="45.86259" lon="2.92779">
        <ele>875</ele>
        <time>2015-10-20T20:14:49Z</time>
      </trkpt>
      <trkpt lat="45.86288" lon="2.9284">
        <ele>873</ele>
        <time>2015-10-20T20:16:49Z</time>
      </trkpt>
      <trkpt lat="45.8635" lon="2.92953">
        <ele>871</ele>
        <time>2015-10-20T20:18:49Z</time>
      </trkpt>
      <trkpt lat="45.86406" lon="2.9304">
        <ele>868</ele>
        <time>2015-10-20T20:20:49Z</time>
      </trkpt>
      <trkpt lat="45.86423" lon="2.93098">
        <ele>864</ele>
        <time>2015-10-20T20:22:49Z</time>
      </trkpt>
      <trkpt lat="45.8642" lon="2.93113">
        <ele>863</ele>
        <time>2015-10-20T20:24:49Z</time>
      </trkpt>
      <trkpt lat="45.8643" lon="2.93172">
        <ele>859</ele>
        <time>2015-10-20T20:26:49Z</time>
      </trkpt>
      <trkpt lat="45.86448" lon="2.93262">
        <ele>857</ele>
        <time>2015-10-20T20:28:49Z</time>
      </trkpt>
      <trkpt lat="45.86483" lon="2.9324">
        <ele>856</ele>
        <time>2015-10-20T20:30:49Z</time>
      </trkpt>
      <trkpt lat="45.86554" lon="2.93261">
        <ele>854</ele>
        <time>2015-10-20T20:32:49Z</time>
      </trkpt>
      <trkpt lat="45.86656" lon="2.93341">
        <ele>853</ele>
        <time>2015-10-20T20:34:49Z</time>
      </trkpt>
      <trkpt lat="45.86751" lon="2.93417">
        <ele>853</ele>
        <time>2015-10-20T20:36:49Z</time>
      </trkpt>
      <trkpt lat="45.86798" lon="2.93474">
        <ele>853</ele>
        <time>2015-10-20T20:38:49Z</time>
      </trkpt>
      <trkpt lat="45.86814" lon="2.93525">
        <ele>853</ele>
        <time>2015-10-20T20:40:49Z</time>
      </trkpt>
      <trkpt lat="45.86822" lon="2.93599">
        <ele>853</ele>
        <time>2015-10-20T20:42:49Z</time>
      </trkpt>
      <trkpt lat="45.86826" lon="2.93644">
        <ele>854</ele>
        <time>2015-10-20T20:44:49Z</time>
      </trkpt>
      <trkpt lat="45.8685" lon="2.93683">
        <ele>854</ele>
        <time>2015-10-20T20:46:49Z</time>
      </trkpt>
      <trkpt lat="45.86894" lon="2.93705">
        <ele>853</ele>
        <time>2015-10-20T20:48:49Z</time>
      </trkpt>
      <trkpt lat="45.86932" lon="2.93733">
        <ele>853</ele>
        <time>2015-10-20T20:50:49Z</time>
      </trkpt>
      <trkpt lat="45.86958" lon="2.93771">
        <ele>854</ele>
        <time>2015-10-20T20:52:49Z</time>
      </trkpt>
      <trkpt lat="45.86973" lon="2.93806">
        <ele>855</ele>
        <time>2015-10-20T20:54:49Z</time>
      </trkpt>
      <trkpt lat="45.87008" lon="2.93836">
        <ele>855</ele>
        <time>2015-10-20T20:56:49Z</time>
      </trkpt>
      <trkpt lat="45.87027" lon="2.93871">
        <ele>856</ele>
        <time>2015-10-20T20:58:49Z</time>
      </trkpt>
      <trkpt lat="45.87051" lon="2.93914">
        <ele>856</ele>
        <time>2015-10-20T21:00:49Z</time>
      </trkpt>
      <trkpt lat="45.8708" lon="2.9388">
        <ele>854</ele>
        <time>2015-10-20T21:02:49Z</time>
      </trkpt>
      <trkpt lat="45.87092" lon="2.93848">
        <ele>854</ele>
        <time>2015-10-20T21:04:49Z</time>
      </trkpt>
      <trkpt lat="45.87092" lon="2.93819">
        <ele>854</ele>
        <time>2015-10-20T21:06:49Z</time>
      </trkpt>
      <trkpt lat="45.87121" lon="2.93821">
        <ele>855</ele>
        <time>2015-10-20T21:08:49Z</time>
      </trkpt>
      <trkpt lat="45.87161" lon="2.93804">
        <ele>858</ele>
        <time>2015-10-20T21:10:49Z</time>
      </trkpt>
      <trkpt lat="45.87197" lon="2.93779">
        <ele>859</ele>
        <time>2015-10-20T21:12:49Z</time>
      </trkpt>
      <trkpt lat="45.87274" lon="2.9375">
        <ele>862</ele>
        <time>2015-10-20T21:14:49Z</time>
      </trkpt>
      <trkpt lat="45.87301" lon="2.93738">
        <ele>863</ele>
        <time>2015-10-20T21:16:49Z</time>
      </trkpt>
      <trkpt lat="45.87353" lon="2.93723">
        <ele>865</ele>
        <time>2015-10-20T21:18:49Z</time>
      </trkpt>
      <trkpt lat="45.87428" lon="2.9373">
        <ele>868</ele>
        <time>2015-10-20T21:20:49Z</time>
      </trkpt>
      <trkpt lat="45.8747" lon="2.93738">
        <ele>870</ele>
        <time>2015-10-20T21:22:49Z</time>
      </trkpt>
      <trkpt lat="45.87528" lon="2.93752">
        <ele>870</ele>
        <time>2015-10-20T21:24:49Z</time>
      </trkpt>
      <trkpt lat="45.87591" lon="2.93771">
        <ele>866</ele>
        <time>2015-10-20T21:26:49Z</time>
      </trkpt>
      <trkpt lat="45.87626" lon="2.93804">
        <ele>861</ele>
        <time>2015-10-20T21:28:49Z</time>
      </trkpt>
      <trkpt lat="45.87606" lon="2.93843">
        <ele>856</ele>
        <time>2015-10-20T21:30:49Z</time>
      </trkpt>
      <trkpt lat="45.87579" lon="2.93894">
        <ele>851</ele>
        <time>2015-10-20T21:32:49Z</time>
      </trkpt>
      <trkpt lat="45.87636" lon="2.93918">
        <ele>849</ele>
        <time>2015-10-20T21:34:49Z</time>
      </trkpt>
      <trkpt lat="45.87709" lon="2.93932">
        <ele>847</ele>
        <time>2015-10-20T21:36:49Z</time>
      </trkpt>
      <trkpt lat="45.87742" lon="2.93954">
        <ele>844</ele>
        <time>2015-10-20T21:38:49Z</time>
      </trkpt>
      <trkpt lat="45.87789" lon="2.93985">
        <ele>840</ele>
        <time>2015-10-20T21:40:49Z</time>
      </trkpt>
      <trkpt lat="45.87825" lon="2.94">
        <ele>838</ele>
        <time>2015-10-20T21:42:49Z</time>
      </trkpt>
      <trkpt lat="45.87844" lon="2.93986">
        <ele>841</ele>
        <time>2015-10-20T21:44:49Z</time>
      </trkpt>
      <trkpt lat="45.8787" lon="2.93968">
        <ele>844</ele>
        <time>2015-10-20T21:46:49Z</time>
      </trkpt>
      <trkpt lat="45.8788" lon="2.93941">
        <ele>848</ele>
        <time>2015-10-20T21:48:49Z</time>
      </trkpt>
      <trkpt lat="45.87892" lon="2.93917">
        <ele>852</ele>
        <time>2015-10-20T21:50:49Z</time>
      </trkpt>
      <trkpt lat="45.8792" lon="2.93911">
        <ele>855</ele>
        <time>2015-10-20T21:52:49Z</time>
      </trkpt>
      <trkpt lat="45.87964" lon="2.93919">
        <ele>857</ele>
        <time>2015-10-20T21:54:49Z</time>
      </trkpt>
      <trkpt lat="45.87995" lon="2.9394">
        <ele>857</ele>
        <time>2015-10-20T21:56:49Z</time>
      </trkpt>
      <trkpt lat="45.8803" lon="2.93981">
        <ele>854</ele>
        <time>2015-10-20T21:58:49Z</time>
      </trkpt>
      <trkpt lat="45.88116" lon="2.94004">
        <ele>860</ele>
        <time>2015-10-20T22:00:49Z</time>
      </trkpt>
      <trkpt lat="45.88173" lon="2.94027">
        <ele>862</ele>
        <time>2015-10-20T22:02:49Z</time>
      </trkpt>
      <trkpt lat="45.88239" lon="2.94068">
        <ele>862</ele>
        <time>2015-10-20T22:04:49Z</time>
      </trkpt>
      <trkpt lat="45.88266" lon="2.94171">
        <ele>854</ele>
        <time>2015-10-20T22:06:49Z</time>
      </trkpt>
      <trkpt lat="45.88293" lon="2.94231">
        <ele>848</ele>
        <time>2015-10-20T22:08:49Z</time>
      </trkpt>
      <trkpt lat="45.88322" lon="2.94277">
        <ele>843</ele>
        <time>2015-10-20T22:10:49Z</time>
      </trkpt>
      <trkpt lat="45.88355" lon="2.94338">
        <ele>835</ele>
        <time>2015-10-20T22:12:49Z</time>
      </trkpt>
      <trkpt lat="45.88381" lon="2.94411">
        <ele>829</ele>
        <time>2015-10-20T22:14:49Z</time>
      </trkpt>
      <trkpt lat="45.88393" lon="2.94422">
        <ele>828</ele>
        <time>2015-10-20T22:16:49Z</time>
      </trkpt>
      <trkpt lat="45.88408" lon="2.94414">
        <ele>828</ele>
        <time>2015-10-20T22:18:49Z</time>
      </trkpt>
      <trkpt lat="45.88435" lon="2.94372">
        <ele>828</ele>
        <time>2015-10-20T22:20:49Z</time>
      </trkpt>
      <trkpt lat="45.88452" lon="2.94348">
        <ele>828</ele>
        <time>2015-10-20T22:22:49Z</time>
      </trkpt>
      <trkpt lat="45.88488" lon="2.94314">
        <ele>829</ele>
        <time>2015-10-20T22:24:49Z</time>
      </trkpt>
      <trkpt lat="45.88515" lon="2.94293">
        <ele>830</ele>
        <time>2015-10-20T22:26:49Z</time>
      </trkpt>
      <trkpt lat="45.88537" lon="2.94257">
        <ele>831</ele>
        <time>2015-10-20T22:28:49Z</time>
      </trkpt>
      <trkpt lat="45.88544" lon="2.94238">
        <ele>832</ele>
        <time>2015-10-20T22:30:49Z</time>
      </trkpt>
      <trkpt lat="45.88541" lon="2.94206">
        <ele>836</ele>
        <time>2015-10-20T22:32:49Z</time>
      </trkpt>
      <trkpt lat="45.88535" lon="2.94165">
        <ele>840</ele>
        <time>2015-10-20T22:34:49Z</time>
      </trkpt>
      <trkpt lat="45.88525" lon="2.94129">
        <ele>841</ele>
        <time>2015-10-20T22:36:49Z</time>
      </trkpt>
      <trkpt lat="45.88515" lon="2.94079">
        <ele>842</ele>
        <time>2015-10-20T22:38:49Z</time>
      </trkpt>
      <trkpt lat="45.8851" lon="2.9403">
        <ele>844</ele>
        <time>2015-10-20T22:40:49Z</time>
      </trkpt>
      <trkpt lat="45.88508" lon="2.94011">
        <ele>844</ele>
        <time>2015-10-20T22:42:49Z</time>
      </trkpt>
      <trkpt lat="45.88516" lon="2.93998">
        <ele>844</ele>
        <time>2015-10-20T22:44:49Z</time>
      </trkpt>
      <trkpt lat="45.88539" lon="2.94">
        <ele>843</ele>
        <time>2015-10-20T22:46:49Z</time>
      </trkpt>
      <trkpt lat="45.88567" lon="2.94011">
        <ele>841</ele>
        <time>2015-10-20T22:48:49Z</time>
      </trkpt>
      <trkpt lat="45.88593" lon="2.94029">
        <ele>839</ele>
        <time>2015-10-20T22:50:49Z</time>
      </trkpt>
      <trkpt lat="45.88599" lon="2.94064">
        <ele>838</ele>
        <time>2015-10-20T22:52:49Z</time>
      </trkpt>
      <trkpt lat="45.8868" lon="2.94069">
        <ele>841</ele>
        <time>2015-10-20T22:54:49Z</time>
      </trkpt>
      <trkpt lat="45.88723" lon="2.94065">
        <ele>840</ele>
        <time>2015-10-20T22:56:49Z</time>
      </trkpt>
      <trkpt lat="45.88871" lon="2.94058">
        <ele>833</ele>
        <time>2015-10-20T22:58:49Z</time>
      </trkpt>
      <trkpt lat="45.88907" lon="2.94076">
        <ele>832</ele>
        <time>2015-10-20T23:00:49Z</time>
      </trkpt>
      <trkpt lat="45.88942" lon="2.94116">
        <ele>830</ele>
        <time>2015-10-20T23:02:49Z</time>
      </trkpt>
      <trkpt lat="45.88974" lon="2.94161">
        <ele>829</ele>
        <time>2015-10-20T23:04:49Z</time>
      </trkpt>
      <trkpt lat="45.88998" lon="2.94203">
        <ele>828</ele>
        <time>2015-10-20T23:06:49Z</time>
      </trkpt>
      <trkpt lat="45.89017" lon="2.94257">
        <ele>828</ele>
        <time>2015-10-20T23:08:49Z</time>
      </trkpt>
      <trkpt lat="45.89035" lon="2.94329">
        <ele>827</ele>
        <time>2015-10-20T23:10:49Z</time>
      </trkpt>
      <trkpt lat="45.89087" lon="2.94521">
        <ele>825</ele>
        <time>2015-10-20T23:12:49Z</time>
      </trkpt>
      <trkpt lat="45.89113" lon="2.94578">
        <ele>824</ele>
        <time>2015-10-20T23:14:49Z</time>
      </trkpt>
      <trkpt lat="45.89124" lon="2.94594">
        <ele>824</ele>
        <time>2015-10-20T23:16:49Z</time>
      </trkpt>
      <trkpt lat="45.89107" lon="2.94665">
        <ele>824</ele>
        <time>2015-10-20T23:18:49Z</time>
      </trkpt>
      <trkpt lat="45.89124" lon="2.94676">
        <ele>824</ele>
        <time>2015-10-20T23:20:49Z</time>
      </trkpt>
      <trkpt lat="45.89151" lon="2.9467">
        <ele>824</ele>
        <time>2015-10-20T23:22:49Z</time>
      </trkpt>
      <trkpt lat="45.89175" lon="2.94683">
        <ele>824</ele>
        <time>2015-10-20T23:24:49Z</time>
      </trkpt>
      <trkpt lat="45.89202" lon="2.94704">
        <ele>825</ele>
        <time>2015-10-20T23:26:49Z</time>
      </trkpt>
      <trkpt lat="45.89232" lon="2.9475">
        <ele>825</ele>
        <time>2015-10-20T23:28:49Z</time>
      </trkpt>
      <trkpt lat="45.89247" lon="2.94765">
        <ele>826</ele>
        <time>2015-10-20T23:30:49Z</time>
      </trkpt>
      <trkpt lat="45.8926" lon="2.94782">
        <ele>826</ele>
        <time>2015-10-20T23:32:49Z</time>
      </trkpt>
      <trkpt lat="45.89261" lon="2.94829">
        <ele>828</ele>
        <time>2015-10-20T23:34:49Z</time>
      </trkpt>
      <trkpt lat="45.89263" lon="2.94874">
        <ele>828</ele>
        <time>2015-10-20T23:36:49Z</time>
      </trkpt>
      <trkpt lat="45.89269" lon="2.94894">
        <ele>828</ele>
        <time>2015-10-20T23:38:49Z</time>
      </trkpt>
      <trkpt lat="45.89313" lon="2.94884">
        <ele>828</ele>
        <time>2015-10-20T23:40:49Z</time>
      </trkpt>
      <trkpt lat="45.89316" lon="2.94938">
        <ele>829</ele>
        <time>2015-10-20T23:42:49Z</time>
      </trkpt>
      <trkpt lat="45.89313" lon="2.95003">
        <ele>830</ele>
        <time>2015-10-20T23:44:49Z</time>
      </trkpt>
      <trkpt lat="45.89309" lon="2.95043">
        <ele>835</ele>
        <time>2015-10-20T23:46:49Z</time>
      </trkpt>
      <trkpt lat="45.89365" lon="2.95052">
        <ele>832</ele>
        <time>2015-10-20T23:48:49Z</time>
      </trkpt>
      <trkpt lat="45.89405" lon="2.95059">
        <ele>829</ele>
        <time>2015-10-20T23:50:49Z</time>
      </trkpt>
      <trkpt lat="45.89428" lon="2.95095">
        <ele>830</ele>
        <time>2015-10-20T23:52:49Z</time>
      </trkpt>
      <trkpt lat="45.89461" lon="2.95122">
        <ele>833</ele>
        <time>2015-10-20T23:54:49Z</time>
      </trkpt>
      <trkpt lat="45.895" lon="2.95155">
        <ele>833</ele>
        <time>2015-10-20T23:56:49Z</time>
      </trkpt>
      <trkpt lat="45.89539" lon="2.95187">
        <ele>838</ele>
        <time>2015-10-20T23:58:49Z</time>
      </trkpt>
      <trkpt lat="45.89554" lon="2.95224">
        <ele>843</ele>
        <time>2015-10-21T00:00:49Z</time>
      </trkpt>
      <trkpt lat="45.89574" lon="2.95231">
        <ele>842</ele>
        <time>2015-10-21T00:02:49Z</time>
      </trkpt>
      <trkpt lat="45.89594" lon="2.95273">
        <ele>843</ele>
        <time>2015-10-21T00:04:49Z</time>
      </trkpt>
      <trkpt lat="45.89599" lon="2.95316">
        <ele>844</ele>
        <time>2015-10-21T00:06:49Z</time>
      </trkpt>
      <trkpt lat="45.89588" lon="2.95364">
        <ele>844</ele>
        <time>2015-10-21T00:08:49Z</time>
      </trkpt>
      <trkpt lat="45.8957" lon="2.95429">
        <ele>842</ele>
        <time>2015-10-21T00:10:49Z</time>
      </trkpt>
      <trkpt lat="45.89564" lon="2.95458">
        <ele>840</ele>
        <time>2015-10-21T00:12:49Z</time>
      </trkpt>
      <trkpt lat="45.89577" lon="2.9546">
        <ele>836</ele>
        <time>2015-10-21T00:14:49Z</time>
      </trkpt>
      <trkpt lat="45.89598" lon="2.95453">
        <ele>832</ele>
        <time>2015-10-21T00:16:49Z</time>
      </trkpt>
      <trkpt lat="45.8962" lon="2.95468">
        <ele>827</ele>
        <time>2015-10-21T00:18:49Z</time>
      </trkpt>
      <trkpt lat="45.89643" lon="2.95505">
        <ele>822</ele>
        <time>2015-10-21T00:20:49Z</time>
      </trkpt>
      <trkpt lat="45.89654" lon="2.95527">
        <ele>821</ele>
        <time>2015-10-21T00:22:49Z</time>
      </trkpt>
      <trkpt lat="45.8969" lon="2.95555">
        <ele>818</ele>
        <time>2015-10-21T00:24:49Z</time>
      </trkpt>
      <trkpt lat="45.89756" lon="2.95509">
        <ele>812</ele>
        <time>2015-10-21T00:26:49Z</time>
      </trkpt>
      <trkpt lat="45.8979" lon="2.95482">
        <ele>811</ele>
        <time>2015-10-21T00:28:49Z</time>
      </trkpt>
      <trkpt lat="45.89842" lon="2.95391">
        <ele>811</ele>
        <time>2015-10-21T00:30:49Z</time>
      </trkpt>
      <trkpt lat="45.89867" lon="2.95354">
        <ele>810</ele>
        <time>2015-10-21T00:32:49Z</time>
      </trkpt>
      <trkpt lat="45.89898" lon="2.95313">
        <ele>809</ele>
        <time>2015-10-21T00:34:49Z</time>
      </trkpt>
      <trkpt lat="45.89953" lon="2.95283">
        <ele>808</ele>
        <time>2015-10-21T00:36:49Z</time>
      </trkpt>
      <trkpt lat="45.89988" lon="2.95365">
        <ele>806</ele>
        <time>2015-10-21T00:38:49Z</time>
      </trkpt>
      <trkpt lat="45.90023" lon="2.95414">
        <ele>805</ele>
        <time>2015-10-21T00:40:49Z</time>
      </trkpt>
      <trkpt lat="45.9005" lon="2.95443">
        <ele>804</ele>
        <time>2015-10-21T00:42:49Z</time>
      </trkpt>
      <trkpt lat="45.90092" lon="2.95494">
        <ele>802</ele>
        <time>2015-10-21T00:44:49Z</time>
      </trkpt>
      <trkpt lat="45.90163" lon="2.95605">
        <ele>803</ele>
        <time>2015-10-21T00:46:49Z</time>
      </trkpt>
      <trkpt lat="45.90227" lon="2.95691">
        <ele>801</ele>
        <time>2015-10-21T00:48:49Z</time>
      </trkpt>
      <trkpt lat="45.90248" lon="2.9572">
        <ele>801</ele>
        <time>2015-10-21T00:50:49Z</time>
      </trkpt>
      <trkpt lat="45.90297" lon="2.95478">
        <ele>810</ele>
        <time>2015-10-21T00:52:49Z</time>
      </trkpt>
      <trkpt lat="45.9031" lon="2.95425">
        <ele>813</ele>
        <time>2015-10-21T00:54:49Z</time>
      </trkpt>
      <trkpt lat="45.90327" lon="2.95382">
        <ele>816</ele>
        <time>2015-10-21T00:56:49Z</time>
      </trkpt>
      <trkpt lat="45.90342" lon="2.9534">
        <ele>818</ele>
        <time>2015-10-21T00:58:49Z</time>
      </trkpt>
      <trkpt lat="45.90356" lon="2.95283">
        <ele>821</ele>
        <time>2015-10-21T01:00:49Z</time>
      </trkpt>
      <trkpt lat="45.90358" lon="2.95265">
        <ele>823</ele>
        <time>2015-10-21T01:02:49Z</time>
      </trkpt>
      <trkpt lat="45.90353" lon="2.95196">
        <ele>825</ele>
        <time>2015-10-21T01:04:49Z</time>
      </trkpt>
      <trkpt lat="45.90357" lon="2.9515">
        <ele>826</ele>
        <time>2015-10-21T01:06:49Z</time>
      </trkpt>
      <trkpt lat="45.90361" lon="2.95119">
        <ele>825</ele>
        <time>2015-10-21T01:08:49Z</time>
      </trkpt>
      <trkpt lat="45.90367" lon="2.95048">
        <ele>827</ele>
        <time>2015-10-21T01:10:49Z</time>
      </trkpt>
      <trkpt lat="45.90366" lon="2.95006">
        <ele>830</ele>
        <time>2015-10-21T01:12:49Z</time>
      </trkpt>
      <trkpt lat="45.90347" lon="2.94966">
        <ele>833</ele>
        <time>2015-10-21T01:14:49Z</time>
      </trkpt>
      <trkpt lat="45.90317" lon="2.9494">
        <ele>835</ele>
        <time>2015-10-21T01:16:49Z</time>
      </trkpt>
      <trkpt lat="45.90298" lon="2.94916">
        <ele>837</ele>
        <time>2015-10-21T01:18:49Z</time>
      </trkpt>
      <trkpt lat="45.90268" lon="2.94858">
        <ele>840</ele>
        <time>2015-10-21T01:20:49Z</time>
      </trkpt>
      <trkpt lat="45.90253" lon="2.94811">
        <ele>843</ele>
        <time>2015-10-21T01:22:49Z</time>
      </trkpt>
      <trkpt lat="45.90241" lon="2.94761">
        <ele>846</ele>
        <time>2015-10-21T01:24:49Z</time>
      </trkpt>
      <trkpt lat="45.90241" lon="2.94727">
        <ele>848</ele>
        <time>2015-10-21T01:26:49Z</time>
      </trkpt>
      <trkpt lat="45.90249" lon="2.94675">
        <ele>851</ele>
        <time>2015-10-21T01:28:49Z</time>
      </trkpt>
      <trkpt lat="45.9026" lon="2.94615">
        <ele>853</ele>
        <time>2015-10-21T01:30:49Z</time>
      </trkpt>
      <trkpt lat="45.90286" lon="2.94557">
        <ele>855</ele>
        <time>2015-10-21T01:32:49Z</time>
      </trkpt>
      <trkpt lat="45.90312" lon="2.94516">
        <ele>857</ele>
        <time>2015-10-21T01:34:49Z</time>
      </trkpt>
      <trkpt lat="45.90327" lon="2.94504">
        <ele>859</ele>
        <time>2015-10-21T01:36:49Z</time>
      </trkpt>
      <trkpt lat="45.90354" lon="2.94472">
        <ele>860</ele>
        <time>2015-10-21T01:38:49Z</time>
      </trkpt>
      <trkpt lat="45.90366" lon="2.94454">
        <ele>861</ele>
        <time>2015-10-21T01:40:49Z</time>
      </trkpt>
      <trkpt lat="45.90376" lon="2.94425">
        <ele>861</ele>
        <time>2015-10-21T01:42:49Z</time>
      </trkpt>
      <trkpt lat="45.90367" lon="2.9438">
        <ele>862</ele>
        <time>2015-10-21T01:44:49Z</time>
      </trkpt>
      <trkpt lat="45.90373" lon="2.94357">
        <ele>862</ele>
        <time>2015-10-21T01:46:49Z</time>
      </trkpt>
      <trkpt lat="45.90383" lon="2.94339">
        <ele>861</ele>
        <time>2015-10-21T01:48:49Z</time>
      </trkpt>
      <trkpt lat="45.90381" lon="2.94317">
        <ele>861</ele>
        <time>2015-10-21T01:50:49Z</time>
      </trkpt>
      <trkpt lat="45.9037" lon="2.94286">
        <ele>861</ele>
        <time>2015-10-21T01:52:49Z</time>
      </trkpt>
      <trkpt lat="45.90344" lon="2.94234">
        <ele>861</ele>
        <time>2015-10-21T01:54:49Z</time>
      </trkpt>
      <trkpt lat="45.90328" lon="2.94206">
        <ele>860</ele>
        <time>2015-10-21T01:56:49Z</time>
      </trkpt>
      <trkpt lat="45.90308" lon="2.94187">
        <ele>860</ele>
        <time>2015-10-21T01:58:49Z</time>
      </trkpt>
      <trkpt lat="45.90336" lon="2.9418">
        <ele>858</ele>
        <time>2015-10-21T02:00:49Z</time>
      </trkpt>
      <trkpt lat="45.90367" lon="2.94181">
        <ele>854</ele>
        <time>2015-10-21T02:02:49Z</time>
      </trkpt>
      <trkpt lat="45.90395" lon="2.94184">
        <ele>851</ele>
        <time>2015-10-21T02:04:49Z</time>
      </trkpt>
      <trkpt lat="45.90414" lon="2.94191">
        <ele>850</ele>
        <time>2015-10-21T02:06:49Z</time>
      </trkpt>
      <trkpt lat="45.90456" lon="2.94228">
        <ele>846</ele>
        <time>2015-10-21T02:08:49Z</time>
      </trkpt>
      <trkpt lat="45.90486" lon="2.94263">
        <ele>842</ele>
        <time>2015-10-21T02:10:49Z</time>
      </trkpt>
      <trkpt lat="45.90522" lon="2.94299">
        <ele>838</ele>
        <time>2015-10-21T02:12:49Z</time>
      </trkpt>
      <trkpt lat="45.90552" lon="2.9434">
        <ele>834</ele>
        <time>2015-10-21T02:14:49Z</time>
      </trkpt>
      <trkpt lat="45.90598" lon="2.94368">
        <ele>828</ele>
        <time>2015-10-21T02:16:49Z</time>
      </trkpt>
      <trkpt lat="45.90626" lon="2.94394">
        <ele>825</ele>
        <time>2015-10-21T02:18:49Z</time>
      </trkpt>
      <trkpt lat="45.90657" lon="2.94408">
        <ele>822</ele>
        <time>2015-10-21T02:20:49Z</time>
      </trkpt>
      <trkpt lat="45.90698" lon="2.94416">
        <ele>819</ele>
        <time>2015-10-21T02:22:49Z</time>
      </trkpt>
      <trkpt lat="45.90716" lon="2.94375">
        <ele>819</ele>
        <time>2015-10-21T02:24:49Z</time>
      </trkpt>
      <trkpt lat="45.90729" lon="2.9435">
        <ele>818</ele>
        <time>2015-10-21T02:26:49Z</time>
      </trkpt>
      <trkpt lat="45.90734" lon="2.9432">
        <ele>819</ele>
        <time>2015-10-21T02:28:49Z</time>
      </trkpt>
      <trkpt lat="45.90734" lon="2.94277">
        <ele>821</ele>
        <time>2015-10-21T02:30:49Z</time>
      </trkpt>
      <trkpt lat="45.9074" lon="2.94226">
        <ele>823</ele>
        <time>2015-10-21T02:32:49Z</time>
      </trkpt>
      <trkpt lat="45.90743" lon="2.94194">
        <ele>824</ele>
        <time>2015-10-21T02:34:49Z</time>
      </trkpt>
      <trkpt lat="45.90748" lon="2.94173">
        <ele>824</ele>
        <time>2015-10-21T02:36:49Z</time>
      </trkpt>
      <trkpt lat="45.90754" lon="2.94151">
        <ele>825</ele>
        <time>2015-10-21T02:38:49Z</time>
      </trkpt>
      <trkpt lat="45.90753" lon="2.94132">
        <ele>826</ele>
        <time>2015-10-21T02:40:49Z</time>
      </trkpt>
      <trkpt lat="45.90749" lon="2.94111">
        <ele>827</ele>
        <time>2015-10-21T02:42:49Z</time>
      </trkpt>
      <trkpt lat="45.90725" lon="2.94116">
        <ele>830</ele>
        <time>2015-10-21T02:44:49Z</time>
      </trkpt>
      <trkpt lat="45.90717" lon="2.94099">
        <ele>832</ele>
        <time>2015-10-21T02:46:49Z</time>
      </trkpt>
      <trkpt lat="45.90704" lon="2.9406">
        <ele>836</ele>
        <time>2015-10-21T02:48:49Z</time>
      </trkpt>
      <trkpt lat="45.90698" lon="2.94031">
        <ele>838</ele>
        <time>2015-10-21T02:50:49Z</time>
      </trkpt>
      <trkpt lat="45.907" lon="2.93996">
        <ele>838</ele>
        <time>2015-10-21T02:52:49Z</time>
      </trkpt>
      <trkpt lat="45.90699" lon="2.9396">
        <ele>838</ele>
        <time>2015-10-21T02:54:49Z</time>
      </trkpt>
      <trkpt lat="45.9067" lon="2.93893">
        <ele>841</ele>
        <time>2015-10-21T02:56:49Z</time>
      </trkpt>
      <trkpt lat="45.9064" lon="2.93865">
        <ele>843</ele>
        <time>2015-10-21T02:58:49Z</time>
      </trkpt>
      <trkpt lat="45.90607" lon="2.93835">
        <ele>844</ele>
        <time>2015-10-21T03:00:49Z</time>
      </trkpt>
      <trkpt lat="45.90578" lon="2.93795">
        <ele>845</ele>
        <time>2015-10-21T03:02:49Z</time>
      </trkpt>
      <trkpt lat="45.90539" lon="2.93761">
        <ele>848</ele>
        <time>2015-10-21T03:04:49Z</time>
      </trkpt>
      <trkpt lat="45.90502" lon="2.93721">
        <ele>850</ele>
        <time>2015-10-21T03:06:49Z</time>
      </trkpt>
      <trkpt lat="45.90485" lon="2.93702">
        <ele>852</ele>
        <time>2015-10-21T03:08:49Z</time>
      </trkpt>
      <trkpt lat="45.90478" lon="2.93677">
        <ele>852</ele>
        <time>2015-10-21T03:10:49Z</time>
      </trkpt>
      <trkpt lat="45.90462" lon="2.93667">
        <ele>854</ele>
        <time>2015-10-21T03:12:49Z</time>
      </trkpt>
      <trkpt lat="45.90464" lon="2.93627">
        <ele>857</ele>
        <time>2015-10-21T03:14:49Z</time>
      </trkpt>
      <trkpt lat="45.90478" lon="2.93609">
        <ele>857</ele>
        <time>2015-10-21T03:16:49Z</time>
      </trkpt>
      <trkpt lat="45.90501" lon="2.93594">
        <ele>855</ele>
        <time>2015-10-21T03:18:49Z</time>
      </trkpt>
      <trkpt lat="45.90546" lon="2.93589">
        <ele>853</ele>
        <time>2015-10-21T03:20:49Z</time>
      </trkpt>
      <trkpt lat="45.90549" lon="2.93566">
        <ele>854</ele>
        <time>2015-10-21T03:22:49Z</time>
      </trkpt>
      <trkpt lat="45.90546" lon="2.93532">
        <ele>857</ele>
        <time>2015-10-21T03:24:49Z</time>
      </trkpt>
      <trkpt lat="45.90545" lon="2.93487">
        <ele>861</ele>
        <time>2015-10-21T03:26:49Z</time>
      </trkpt>
      <trkpt lat="45.90554" lon="2.93453">
        <ele>862</ele>
        <time>2015-10-21T03:28:49Z</time>
      </trkpt>
      <trkpt lat="45.9065" lon="2.93471">
        <ele>865</ele>
        <time>2015-10-21T03:30:49Z</time>
      </trkpt>
      <trkpt lat="45.907" lon="2.93477">
        <ele>868</ele>
        <time>2015-10-21T03:32:49Z</time>
      </trkpt>
      <trkpt lat="45.90756" lon="2.93492">
        <ele>872</ele>
        <time>2015-10-21T03:34:49Z</time>
      </trkpt>
      <trkpt lat="45.90801" lon="2.93507">
        <ele>872</ele>
        <time>2015-10-21T03:36:49Z</time>
      </trkpt>
      <trkpt lat="45.9084" lon="2.93513">
        <ele>873</ele>
        <time>2015-10-21T03:38:49Z</time>
      </trkpt>
      <trkpt lat="45.90877" lon="2.93499">
        <ele>875</ele>
        <time>2015-10-21T03:40:49Z</time>
      </trkpt>
      <trkpt lat="45.90924" lon="2.93468">
        <ele>879</ele>
        <time>2015-10-21T03:42:49Z</time>
      </trkpt>
      <trkpt lat="45.90952" lon="2.93459">
        <ele>880</ele>
        <time>2015-10-21T03:44:49Z</time>
      </trkpt>
      <trkpt lat="45.91006" lon="2.93439">
        <ele>882</ele>
        <time>2015-10-21T03:46:49Z</time>
      </trkpt>
      <trkpt lat="45.91053" lon="2.93406">
        <ele>886</ele>
        <time>2015-10-21T03:48:49Z</time>
      </trkpt>
      <trkpt lat="45.9101" lon="2.93357">
        <ele>887</ele>
        <time>2015-10-21T03:50:49Z</time>
      </trkpt>
      <trkpt lat="45.91038" lon="2.93321">
        <ele>890</ele>
        <time>2015-10-21T03:52:49Z</time>
      </trkpt>
      <trkpt lat="45.9109" lon="2.93256">
        <ele>895</ele>
        <time>2015-10-21T03:54:49Z</time>
      </trkpt>
      <trkpt lat="45.91102" lon="2.93181">
        <ele>900</ele>
        <time>2015-10-21T03:56:49Z</time>
      </trkpt>
      <trkpt lat="45.91114" lon="2.93026">
        <ele>907</ele>
        <time>2015-10-21T03:58:49Z</time>
      </trkpt>
      <trkpt lat="45.9112" lon="2.92958">
        <ele>908</ele>
        <time>2015-10-21T04:00:49Z</time>
      </trkpt>
      <trkpt lat="45.91129" lon="2.9287">
        <ele>913</ele>
        <time>2015-10-21T04:02:49Z</time>
      </trkpt>
      <trkpt lat="45.9114" lon="2.92835">
        <ele>917</ele>
        <time>2015-10-21T04:04:49Z</time>
      </trkpt>
      <trkpt lat="45.91161" lon="2.92791">
        <ele>921</ele>
        <time>2015-10-21T04:06:49Z</time>
      </trkpt>
      <trkpt lat="45.91184" lon="2.92746">
        <ele>923</ele>
        <time>2015-10-21T04:08:49Z</time>
      </trkpt>
      <trkpt lat="45.91216" lon="2.92714">
        <ele>926</ele>
        <time>2015-10-21T04:10:49Z</time>
      </trkpt>
      <trkpt lat="45.91231" lon="2.92691">
        <ele>927</ele>
        <time>2015-10-21T04:12:49Z</time>
      </trkpt>
      <trkpt lat="45.91269" lon="2.92681">
        <ele>932</ele>
        <time>2015-10-21T04:14:49Z</time>
      </trkpt>
      <trkpt lat="45.91305" lon="2.92673">
        <ele>936</ele>
        <time>2015-10-21T04:16:49Z</time>
      </trkpt>
      <trkpt lat="45.91317" lon="2.92689">
        <ele>938</ele>
        <time>2015-10-21T04:18:49Z</time>
      </trkpt>
      <trkpt lat="45.91346" lon="2.92753">
        <ele>948</ele>
        <time>2015-10-21T04:20:49Z</time>
      </trkpt>
      <trkpt lat="45.91325" lon="2.92676">
        <ele>939</ele>
        <time>2015-10-21T04:22:49Z</time>
      </trkpt>
      <trkpt lat="45.91353" lon="2.92628">
        <ele>943</ele>
        <time>2015-10-21T04:24:49Z</time>
      </trkpt>
      <trkpt lat="45.91383" lon="2.92602">
        <ele>949</ele>
        <time>2015-10-21T04:26:49Z</time>
      </trkpt>
      <trkpt lat="45.91432" lon="2.92579">
        <ele>956</ele>
        <time>2015-10-21T04:28:49Z</time>
      </trkpt>
      <trkpt lat="45.91461" lon="2.92556">
        <ele>958</ele>
        <time>2015-10-21T04:30:49Z</time>
      </trkpt>
      <trkpt lat="45.91458" lon="2.92612">
        <ele>963</ele>
        <time>2015-10-21T04:32:49Z</time>
      </trkpt>
      <trkpt lat="45.91446" lon="2.92651">
        <ele>965</ele>
        <time>2015-10-21T04:34:49Z</time>
      </trkpt>
      <trkpt lat="45.9142" lon="2.92697">
        <ele>966</ele>
        <time>2015-10-21T04:36:49Z</time>
      </trkpt>
      <trkpt lat="45.91399" lon="2.92724">
        <ele>963</ele>
        <time>2015-10-21T04:38:49Z</time>
      </trkpt>
      <trkpt lat="45.91436" lon="2.92711">
        <ele>969</ele>
        <time>2015-10-21T04:40:49Z</time>
      </trkpt>
      <trkpt lat="45.91475" lon="2.92697">
        <ele>971</ele>
        <time>2015-10-21T04:42:49Z</time>
      </trkpt>
      <trkpt lat="45.91497" lon="2.9269">
        <ele>973</ele>
        <time>2015-10-21T04:44:49Z</time>
      </trkpt>
      <trkpt lat="45.91517" lon="2.92704">
        <ele>973</ele>
        <time>2015-10-21T04:46:49Z</time>
      </trkpt>
      <trkpt lat="45.91549" lon="2.92712">
        <ele>972</ele>
        <time>2015-10-21T04:48:49Z</time>
      </trkpt>
      <trkpt lat="45.91559" lon="2.92819">
        <ele>970</ele>
        <time>2015-10-21T04:50:49Z</time>
      </trkpt>
      <trkpt lat="45.91572" lon="2.92992">
        <ele>961</ele>
        <time>2015-10-21T04:52:49Z</time>
      </trkpt>
      <trkpt lat="45.91584" lon="2.93021">
        <ele>958</ele>
        <time>2015-10-21T04:54:49Z</time>
      </trkpt>
      <trkpt lat="45.91617" lon="2.93004">
        <ele>959</ele>
        <time>2015-10-21T04:56:49Z</time>
      </trkpt>
      <trkpt lat="45.91639" lon="2.92967">
        <ele>962</ele>
        <time>2015-10-21T04:58:49Z</time>
      </trkpt>
      <trkpt lat="45.91667" lon="2.92925">
        <ele>966</ele>
        <time>2015-10-21T05:00:49Z</time>
      </trkpt>
      <trkpt lat="45.91688" lon="2.92867">
        <ele>968</ele>
        <time>2015-10-21T05:02:49Z</time>
      </trkpt>
      <trkpt lat="45.91732" lon="2.92722">
        <ele>962</ele>
        <time>2015-10-21T05:04:49Z</time>
      </trkpt>
      <trkpt lat="45.9174" lon="2.92693">
        <ele>960</ele>
        <time>2015-10-21T05:06:49Z</time>
      </trkpt>
      <trkpt lat="45.91794" lon="2.92619">
        <ele>953</ele>
        <time>2015-10-21T05:08:49Z</time>
      </trkpt>
      <trkpt lat="45.91821" lon="2.9258">
        <ele>950</ele>
        <time>2015-10-21T05:10:49Z</time>
      </trkpt>
      <trkpt lat="45.91879" lon="2.92525">
        <ele>949</ele>
        <time>2015-10-21T05:12:49Z</time>
      </trkpt>
      <trkpt lat="45.91906" lon="2.92453">
        <ele>948</ele>
        <time>2015-10-21T05:14:49Z</time>
      </trkpt>
      <trkpt lat="45.91926" lon="2.92382">
        <ele>946</ele>
        <time>2015-10-21T05:16:49Z</time>
      </trkpt>
      <trkpt lat="45.91935" lon="2.92343">
        <ele>944</ele>
        <time>2015-10-21T05:18:49Z</time>
      </trkpt>
      <trkpt lat="45.91887" lon="2.92272">
        <ele>940</ele>
        <time>2015-10-21T05:20:49Z</time>
      </trkpt>
      <trkpt lat="45.91862" lon="2.92246">
        <ele>938</ele>
        <time>2015-10-21T05:22:49Z</time>
      </trkpt>
      <trkpt lat="45.91839" lon="2.92189">
        <ele>934</ele>
        <time>2015-10-21T05:24:49Z</time>
      </trkpt>
      <trkpt lat="45.91827" lon="2.92144">
        <ele>929</ele>
        <time>2015-10-21T05:26:49Z</time>
      </trkpt>
      <trkpt lat="45.91838" lon="2.92107">
        <ele>926</ele>
        <time>2015-10-21T05:28:49Z</time>
      </trkpt>
      <trkpt lat="45.91843" lon="2.92071">
        <ele>923</ele>
        <time>2015-10-21T05:30:49Z</time>
      </trkpt>
      <trkpt lat="45.91839" lon="2.92027">
        <ele>919</ele>
        <time>2015-10-21T05:32:49Z</time>
      </trkpt>
      <trkpt lat="45.91835" lon="2.91981">
        <ele>914</ele>
        <time>2015-10-21T05:34:49Z</time>
      </trkpt>
      <trkpt lat="45.91836" lon="2.91942">
        <ele>910</ele>
        <time>2015-10-21T05:36:49Z</time>
      </trkpt>
      <trkpt lat="45.91816" lon="2.91873">
        <ele>902</ele>
        <time>2015-10-21T05:38:49Z</time>
      </trkpt>
      <trkpt lat="45.91822" lon="2.91829">
        <ele>900</ele>
        <time>2015-10-21T05:40:49Z</time>
      </trkpt>
      <trkpt lat="45.91836" lon="2.91778">
        <ele>897</ele>
        <time>2015-10-21T05:42:49Z</time>
      </trkpt>
      <trkpt lat="45.9185" lon="2.91736">
        <ele>895</ele>
        <time>2015-10-21T05:44:49Z</time>
      </trkpt>
      <trkpt lat="45.91871" lon="2.91689">
        <ele>894</ele>
        <time>2015-10-21T05:46:49Z</time>
      </trkpt>
      <trkpt lat="45.91887" lon="2.91639">
        <ele>893</ele>
        <time>2015-10-21T05:48:49Z</time>
      </trkpt>
      <trkpt lat="45.91892" lon="2.91622">
        <ele>893</ele>
        <time>2015-10-21T05:50:49Z</time>
      </trkpt>
      <trkpt lat="45.91894" lon="2.91585">
        <ele>891</ele>
        <time>2015-10-21T05:52:49Z</time>
      </trkpt>
      <trkpt lat="45.91904" lon="2.9153">
        <ele>889</ele>
        <time>2015-10-21T05:54:49Z</time>
      </trkpt>
      <trkpt lat="45.91913" lon="2.91454">
        <ele>888</ele>
        <time>2015-10-21T05:56:49Z</time>
      </trkpt>
      <trkpt lat="45.91904" lon="2.91386">
        <ele>887</ele>
        <time>2015-10-21T05:58:49Z</time>
      </trkpt>
      <trkpt lat="45.91893" lon="2.91345">
        <ele>885</ele>
        <time>2015-10-21T06:00:49Z</time>
      </trkpt>
      <trkpt lat="45.91884" lon="2.91297">
        <ele>882</ele>
        <time>2015-10-21T06:02:49Z</time>
      </trkpt>
      <trkpt lat="45.91876" lon="2.91264">
        <ele>880</ele>
        <time>2015-10-21T06:04:49Z</time>
      </trkpt>
      <trkpt lat="45.91885" lon="2.9123">
        <ele>880</ele>
        <time>2015-10-21T06:06:49Z</time>
      </trkpt>
      <trkpt lat="45.919" lon="2.91204">
        <ele>881</ele>
        <time>2015-10-21T06:08:49Z</time>
      </trkpt>
      <trkpt lat="45.91916" lon="2.91175">
        <ele>882</ele>
        <time>2015-10-21T06:10:49Z</time>
      </trkpt>
      <trkpt lat="45.91923" lon="2.9115">
        <ele>881</ele>
        <time>2015-10-21T06:12:49Z</time>
      </trkpt>
      <trkpt lat="45.91929" lon="2.9107">
        <ele>878</ele>
        <time>2015-10-21T06:14:49Z</time>
      </trkpt>
      <trkpt lat="45.91928" lon="2.90998">
        <ele>874</ele>
        <time>2015-10-21T06:16:49Z</time>
      </trkpt>
      <trkpt lat="45.91923" lon="2.90944">
        <ele>870</ele>
        <time>2015-10-21T06:18:49Z</time>
      </trkpt>
      <trkpt lat="45.91923" lon="2.90896">
        <ele>868</ele>
        <time>2015-10-21T06:20:49Z</time>
      </trkpt>
      <trkpt lat="45.91917" lon="2.90872">
        <ele>866</ele>
        <time>2015-10-21T06:22:49Z</time>
      </trkpt>
      <trkpt lat="45.919" lon="2.90885">
        <ele>865</ele>
        <time>2015-10-21T06:24:49Z</time>
      </trkpt>
      <trkpt lat="45.91885" lon="2.90886">
        <ele>864</ele>
        <time>2015-10-21T06:26:49Z</time>
      </trkpt>
      <trkpt lat="45.91875" lon="2.90874">
        <ele>863</ele>
        <time>2015-10-21T06:28:49Z</time>
      </trkpt>
      <trkpt lat="45.91853" lon="2.90849">
        <ele>861</ele>
        <time>2015-10-21T06:30:49Z</time>
      </trkpt>
      <trkpt lat="45.91838" lon="2.90851">
        <ele>859</ele>
        <time>2015-10-21T06:32:49Z</time>
      </trkpt>
      <trkpt lat="45.91814" lon="2.90867">
        <ele>857</ele>
        <time>2015-10-21T06:34:49Z</time>
      </trkpt>
      <trkpt lat="45.91793" lon="2.90906">
        <ele>855</ele>
        <time>2015-10-21T06:36:49Z</time>
      </trkpt>
      <trkpt lat="45.91798" lon="2.90953">
        <ele>855</ele>
        <time>2015-10-21T06:38:49Z</time>
      </trkpt>
      <trkpt lat="45.91788" lon="2.90985">
        <ele>854</ele>
        <time>2015-10-21T06:40:49Z</time>
      </trkpt>
      <trkpt lat="45.91771" lon="2.91009">
        <ele>852</ele>
        <time>2015-10-21T06:42:49Z</time>
      </trkpt>
      <trkpt lat="45.91753" lon="2.91019">
        <ele>850</ele>
        <time>2015-10-21T06:44:49Z</time>
      </trkpt>
      <trkpt lat="45.9173" lon="2.91031">
        <ele>847</ele>
        <time>2015-10-21T06:46:49Z</time>
      </trkpt>
      <trkpt lat="45.91716" lon="2.91066">
        <ele>846</ele>
        <time>2015-10-21T06:48:49Z</time>
      </trkpt>
      <trkpt lat="45.91702" lon="2.91091">
        <ele>845</ele>
        <time>2015-10-21T06:50:49Z</time>
      </trkpt>
      <trkpt lat="45.9169" lon="2.91128">
        <ele>845</ele>
        <time>2015-10-21T06:52:49Z</time>
      </trkpt>
      <trkpt lat="45.91679" lon="2.91162">
        <ele>845</ele>
        <time>2015-10-21T06:54:49Z</time>
      </trkpt>
      <trkpt lat="45.91669" lon="2.91201">
        <ele>845</ele>
        <time>2015-10-21T06:56:49Z</time>
      </trkpt>
      <trkpt lat="45.91659" lon="2.91238">
        <ele>846</ele>
        <time>2015-10-21T06:58:49Z</time>
      </trkpt>
      <trkpt lat="45.91638" lon="2.9126">
        <ele>849</ele>
        <time>2015-10-21T07:00:49Z</time>
      </trkpt>
      <trkpt lat="45.91646" lon="2.91305">
        <ele>851</ele>
        <time>2015-10-21T07:02:49Z</time>
      </trkpt>
      <trkpt lat="45.91625" lon="2.91302">
        <ele>852</ele>
        <time>2015-10-21T07:04:49Z</time>
      </trkpt>
      <trkpt lat="45.91609" lon="2.91294">
        <ele>853</ele>
        <time>2015-10-21T07:06:49Z</time>
      </trkpt>
      <trkpt lat="45.91591" lon="2.91296">
        <ele>854</ele>
        <time>2015-10-21T07:08:49Z</time>
      </trkpt>
      <trkpt lat="45.91568" lon="2.91244">
        <ele>854</ele>
        <time>2015-10-21T07:10:49Z</time>
      </trkpt>
      <trkpt lat="45.91538" lon="2.91258">
        <ele>861</ele>
        <time>2015-10-21T07:12:49Z</time>
      </trkpt>
      <trkpt lat="45.91527" lon="2.91351">
        <ele>869</ele>
        <time>2015-10-21T07:14:49Z</time>
      </trkpt>
      <trkpt lat="45.91514" lon="2.91365">
        <ele>872</ele>
        <time>2015-10-21T07:16:49Z</time>
      </trkpt>
      <trkpt lat="45.91491" lon="2.91534">
        <ele>882</ele>
        <time>2015-10-21T07:18:49Z</time>
      </trkpt>
      <trkpt lat="45.91441" lon="2.9156">
        <ele>893</ele>
        <time>2015-10-21T07:20:49Z</time>
      </trkpt>
      <trkpt lat="45.91409" lon="2.91521">
        <ele>897</ele>
        <time>2015-10-21T07:22:49Z</time>
      </trkpt>
      <trkpt lat="45.91374" lon="2.91443">
        <ele>896</ele>
        <time>2015-10-21T07:24:49Z</time>
      </trkpt>
      <trkpt lat="45.9134" lon="2.91401">
        <ele>896</ele>
        <time>2015-10-21T07:26:49Z</time>
      </trkpt>
      <trkpt lat="45.9132" lon="2.91367">
        <ele>893</ele>
        <time>2015-10-21T07:28:49Z</time>
      </trkpt>
      <trkpt lat="45.91302" lon="2.91332">
        <ele>889</ele>
        <time>2015-10-21T07:30:49Z</time>
      </trkpt>
      <trkpt lat="45.91223" lon="2.91332">
        <ele>881</ele>
        <time>2015-10-21T07:32:49Z</time>
      </trkpt>
      <trkpt lat="45.91165" lon="2.91334">
        <ele>874</ele>
        <time>2015-10-21T07:34:49Z</time>
      </trkpt>
      <trkpt lat="45.9113" lon="2.9133">
        <ele>869</ele>
        <time>2015-10-21T07:36:49Z</time>
      </trkpt>
      <trkpt lat="45.91111" lon="2.91334">
        <ele>867</ele>
        <time>2015-10-21T07:38:49Z</time>
      </trkpt>
      <trkpt lat="45.9108" lon="2.91377">
        <ele>866</ele>
        <time>2015-10-21T07:40:49Z</time>
      </trkpt>
      <trkpt lat="45.91034" lon="2.91364">
        <ele>860</ele>
        <time>2015-10-21T07:42:49Z</time>
      </trkpt>
      <trkpt lat="45.90992" lon="2.91378">
        <ele>857</ele>
        <time>2015-10-21T07:44:49Z</time>
      </trkpt>
      <trkpt lat="45.90964" lon="2.91358">
        <ele>852</ele>
        <time>2015-10-21T07:46:49Z</time>
      </trkpt>
      <trkpt lat="45.90937" lon="2.91314">
        <ele>846</ele>
        <time>2015-10-21T07:48:49Z</time>
      </trkpt>
      <trkpt lat="45.90922" lon="2.91308">
        <ele>844</ele>
        <time>2015-10-21T07:50:49Z</time>
      </trkpt>
      <trkpt lat="45.90899" lon="2.91368">
        <ele>846</ele>
        <time>2015-10-21T07:52:49Z</time>
      </trkpt>
      <trkpt lat="45.90863" lon="2.91355">
        <ele>843</ele>
        <time>2015-10-21T07:54:49Z</time>
      </trkpt>
      <trkpt lat="45.90819" lon="2.91381">
        <ele>840</ele>
        <time>2015-10-21T07:56:49Z</time>
      </trkpt>
      <trkpt lat="45.90793" lon="2.91424">
        <ele>838</ele>
        <time>2015-10-21T07:58:49Z</time>
      </trkpt>
      <trkpt lat="45.90787" lon="2.91497">
        <ele>836</ele>
        <time>2015-10-21T08:00:49Z</time>
      </trkpt>
      <trkpt lat="45.90772" lon="2.91514">
        <ele>835</ele>
        <time>2015-10-21T08:02:49Z</time>
      </trkpt>
      <trkpt lat="45.90726" lon="2.91515">
        <ele>833</ele>
        <time>2015-10-21T08:04:49Z</time>
      </trkpt>
      <trkpt lat="45.90702" lon="2.91525">
        <ele>833</ele>
        <time>2015-10-21T08:06:49Z</time>
      </trkpt>
      <trkpt lat="45.90678" lon="2.91562">
        <ele>834</ele>
        <time>2015-10-21T08:08:49Z</time>
      </trkpt>
      <trkpt lat="45.90657" lon="2.91591">
        <ele>835</ele>
        <time>2015-10-21T08:10:49Z</time>
      </trkpt>
      <trkpt lat="45.90606" lon="2.91641">
        <ele>838</ele>
        <time>2015-10-21T08:12:49Z</time>
      </trkpt>
      <trkpt lat="45.90584" lon="2.91657">
        <ele>839</ele>
        <time>2015-10-21T08:14:49Z</time>
      </trkpt>
      <trkpt lat="45.90507" lon="2.91661">
        <ele>842</ele>
        <time>2015-10-21T08:16:49Z</time>
      </trkpt>
      <trkpt lat="45.90446" lon="2.91706">
        <ele>843</ele>
        <time>2015-10-21T08:18:49Z</time>
      </trkpt>
      <trkpt lat="45.90394" lon="2.91745">
        <ele>845</ele>
        <time>2015-10-21T08:20:49Z</time>
      </trkpt>
      <trkpt lat="45.90367" lon="2.91757">
        <ele>845</ele>
        <time>2015-10-21T08:22:49Z</time>
      </trkpt>
      <trkpt lat="45.90339" lon="2.91744">
        <ele>846</ele>
        <time>2015-10-21T08:24:49Z</time>
      </trkpt>
      <trkpt lat="45.9028" lon="2.91655">
        <ele>850</ele>
        <time>2015-10-21T08:26:49Z</time>
      </trkpt>
      <trkpt lat="45.90215" lon="2.91593">
        <ele>852</ele>
        <time>2015-10-21T08:28:49Z</time>
      </trkpt>
      <trkpt lat="45.90209" lon="2.91571">
        <ele>852</ele>
        <time>2015-10-21T08:30:49Z</time>
      </trkpt>
      <trkpt lat="45.90207" lon="2.91514">
        <ele>852</ele>
        <time>2015-10-21T08:32:49Z</time>
      </trkpt>
      <trkpt lat="45.90139" lon="2.9146">
        <ele>852</ele>
        <time>2015-10-21T08:34:49Z</time>
      </trkpt>
      <trkpt lat="45.90047" lon="2.91399">
        <ele>854</ele>
        <time>2015-10-21T08:36:49Z</time>
      </trkpt>
      <trkpt lat="45.8998" lon="2.91365">
        <ele>855</ele>
        <time>2015-10-21T08:38:49Z</time>
      </trkpt>
      <trkpt lat="45.8983" lon="2.9132">
        <ele>854</ele>
        <time>2015-10-21T08:40:49Z</time>
      </trkpt>
      <trkpt lat="45.89756" lon="2.91302">
        <ele>852</ele>
        <time>2015-10-21T08:42:49Z</time>
      </trkpt>
      <trkpt lat="45.89644" lon="2.91305">
        <ele>852</ele>
        <time>2015-10-21T08:44:49Z</time>
      </trkpt>
      <trkpt lat="45.89597" lon="2.91308">
        <ele>853</ele>
        <time>2015-10-21T08:46:49Z</time>
      </trkpt>
      <trkpt lat="45.89528" lon="2.91309">
        <ele>848</ele>
        <time>2015-10-21T08:48:49Z</time>
      </trkpt>
      <trkpt lat="45.89489" lon="2.91293">
        <ele>845</ele>
        <time>2015-10-21T08:50:49Z</time>
      </trkpt>
      <trkpt lat="45.89448" lon="2.91293">
        <ele>843</ele>
        <time>2015-10-21T08:52:49Z</time>
      </trkpt>
      <trkpt lat="45.89391" lon="2.91294">
        <ele>843</ele>
        <time>2015-10-21T08:54:49Z</time>
      </trkpt>
      <trkpt lat="45.89336" lon="2.91302">
        <ele>844</ele>
        <time>2015-10-21T08:56:49Z</time>
      </trkpt>
      <trkpt lat="45.89283" lon="2.914">
        <ele>846</ele>
        <time>2015-10-21T08:58:49Z</time>
      </trkpt>
      <trkpt lat="45.89134" lon="2.91284">
        <ele>847</ele>
        <time>2015-10-21T09:00:49Z</time>
      </trkpt>
      <trkpt lat="45.89098" lon="2.91267">
        <ele>848</ele>
        <time>2015-10-21T09:02:49Z</time>
      </trkpt>
      <trkpt lat="45.89063" lon="2.91286">
        <ele>848</ele>
        <time>2015-10-21T09:04:49Z</time>
      </trkpt>
      <trkpt lat="45.89039" lon="2.91317">
        <ele>848</ele>
        <time>2015-10-21T09:06:49Z</time>
      </trkpt>
      <trkpt lat="45.89046" lon="2.9134">
        <ele>848</ele>
        <time>2015-10-21T09:08:49Z</time>
      </trkpt>
      <trkpt lat="45.89047" lon="2.91372">
        <ele>847</ele>
        <time>2015-10-21T09:10:49Z</time>
      </trkpt>
      <trkpt lat="45.89046" lon="2.91396">
        <ele>846</ele>
        <time>2015-10-21T09:12:49Z</time>
      </trkpt>
      <trkpt lat="45.89029" lon="2.91427">
        <ele>847</ele>
        <time>2015-10-21T09:14:49Z</time>
      </trkpt>
      <trkpt lat="45.8901" lon="2.91458">
        <ele>847</ele>
        <time>2015-10-21T09:16:49Z</time>
      </trkpt>
      <trkpt lat="45.88989" lon="2.91482">
        <ele>847</ele>
        <time>2015-10-21T09:18:49Z</time>
      </trkpt>
      <trkpt lat="45.88969" lon="2.91502">
        <ele>847</ele>
        <time>2015-10-21T09:20:49Z</time>
      </trkpt>
      <trkpt lat="45.88947" lon="2.91514">
        <ele>849</ele>
        <time>2015-10-21T09:22:49Z</time>
      </trkpt>
      <trkpt lat="45.88948" lon="2.91528">
        <ele>849</ele>
        <time>2015-10-21T09:24:49Z</time>
      </trkpt>
      <trkpt lat="45.8897" lon="2.91524">
        <ele>847</ele>
        <time>2015-10-21T09:26:49Z</time>
      </trkpt>
      <trkpt lat="45.88996" lon="2.91532">
        <ele>845</ele>
        <time>2015-10-21T09:28:49Z</time>
      </trkpt>
      <trkpt lat="45.89021" lon="2.91544">
        <ele>844</ele>
        <time>2015-10-21T09:30:49Z</time>
      </trkpt>
      <trkpt lat="45.8903" lon="2.91555">
        <ele>844</ele>
        <time>2015-10-21T09:32:49Z</time>
      </trkpt>
      <trkpt lat="45.89032" lon="2.91572">
        <ele>844</ele>
        <time>2015-10-21T09:34:49Z</time>
      </trkpt>
      <trkpt lat="45.89029" lon="2.91589">
        <ele>844</ele>
        <time>2015-10-21T09:36:49Z</time>
      </trkpt>
      <trkpt lat="45.89017" lon="2.91592">
        <ele>845</ele>
        <time>2015-10-21T09:38:49Z</time>
      </trkpt>
      <trkpt lat="45.89003" lon="2.91613">
        <ele>845</ele>
        <time>2015-10-21T09:40:49Z</time>
      </trkpt>
      <trkpt lat="45.88992" lon="2.91644">
        <ele>846</ele>
        <time>2015-10-21T09:42:49Z</time>
      </trkpt>
      <trkpt lat="45.88968" lon="2.91652">
        <ele>847</ele>
        <time>2015-10-21T09:44:49Z</time>
      </trkpt>
      <trkpt lat="45.88948" lon="2.91607">
        <ele>848</ele>
        <time>2015-10-21T09:46:49Z</time>
      </trkpt>
      <trkpt lat="45.88929" lon="2.91561">
        <ele>849</ele>
        <time>2015-10-21T09:48:49Z</time>
      </trkpt>
      <trkpt lat="45.88884" lon="2.91548">
        <ele>852</ele>
        <time>2015-10-21T09:50:49Z</time>
      </trkpt>
      <trkpt lat="45.8884" lon="2.91532">
        <ele>853</ele>
        <time>2015-10-21T09:52:49Z</time>
      </trkpt>
      <trkpt lat="45.88818" lon="2.91513">
        <ele>853</ele>
        <time>2015-10-21T09:54:49Z</time>
      </trkpt>
      <trkpt lat="45.88768" lon="2.91464">
        <ele>854</ele>
        <time>2015-10-21T09:56:49Z</time>
      </trkpt>
      <trkpt lat="45.88746" lon="2.91436">
        <ele>855</ele>
        <time>2015-10-21T09:58:49Z</time>
      </trkpt>
      <trkpt lat="45.88739" lon="2.91386">
        <ele>855</ele>
        <time>2015-10-21T10:00:49Z</time>
      </trkpt>
      <trkpt lat="45.88705" lon="2.91387">
        <ele>857</ele>
        <time>2015-10-21T10:02:49Z</time>
      </trkpt>
      <trkpt lat="45.88671" lon="2.91399">
        <ele>858</ele>
        <time>2015-10-21T10:04:49Z</time>
      </trkpt>
      <trkpt lat="45.88652" lon="2.9137">
        <ele>859</ele>
        <time>2015-10-21T10:06:49Z</time>
      </trkpt>
    </trkseg>
  </trk>
</gpx>